Terminal Aerodrome Forecast
Issued by NWS

Home | Current Version | Previous Version | Graphics & Text | Print | Product List | Glossary On
Versions: 1 2 3 4 5 6 7 8 9 10 11 12 13 14 15 16
720
FTUS43 KBIS 101125
TAFMOT
TAF
KMOT 101125Z 1012/1112 12009KT P6SM OVC010
     FM102000 36004KT P6SM OVC008
     FM110000 02006KT P6SM OVC015=

USA.gov is the U.S. government's official web portal to all federal, state and local government web resources and services.